General Aviation Weather

Text Reports

Enter one or more of the following location identifiers separated by a space:

Zip Code, Four-Character ICAO or Three-Character IATA airport codes.

METAR - Aviation Routine Weather Report
KGVL - Gainesville, Georgia
Updated at 9:53 PM GMT on May 25, 2015 (5:53 PM EDT):
METAR KGVL 252153Z AUTO 10006KT 10SM FEW043 OVC055 25/18 A3025 RMK AO2 RAE2056 SLP230 P0000 T02500183 $
TAF - Terminal Area Forecast
KGVL - Gainesville, Georgia
Updated at 9:53 PM GMT on May 25, 2015 (5:53 PM EDT):
No TAF is currently available for this location.
Decoded:
No decoded TAF is available.
PIREP - Pilot Weather Report
KGVL - Gainesville, Georgia
Updated at 9:53 PM GMT on May 25, 2015 (5:53 PM EDT):
No PIREP is currently available for this location.
AIRMET - Airmens Meteorological Information
KGVL - Gainesville, Georgia
Updated at 9:53 PM GMT on May 25, 2015 (5:53 PM EDT):
No AIRMET is currently available for this location.
SIGMET - Significant Meteorological Information
KGVL - Gainesville, Georgia
Updated at 9:53 PM GMT on May 25, 2015 (5:53 PM EDT):
No SIGMET is currently available for this location.
NOTAM - Notice to Airmen
KGVL - Gainesville, Georgia
Updated at 9:53 PM GMT on May 25, 2015 (5:53 PM EDT):
No NOTAM is currently available for this location.
Forecast Area
KGVL - Gainesville, Georgia
Updated at 9:53 PM GMT on May 25, 2015 (5:53 PM EDT):
No NOTAM is currently available for this location.
Aviation Weather Maps